Time;durP1;ratioP1;P1;durP2;ratioP2;P2;SDS_P1;SDS_P2;PMS_P1;PMS_P2;Temp;Humidity;BMP_temperature;BMP_pressure;BME280_temperature;BME280_humidity;BME280_pressure;Samples;Min_cycle;Max_cycle;Signal;HPM_P1;HPM_P2
2022/04/01 00:04:39;;;;;;;22.33;15.33;;;;;;;-0.25;100.00;94876.19;10452535;28;20191;-53
2022/04/01 00:09:40;;;;;;;22.93;15.33;;;;;;;-0.15;100.00;94871.06;10452081;28;20222;-52
2022/04/01 00:14:40;;;;;;;23.50;14.93;;;;;;;-0.11;100.00;94867.25;10452100;28;20222;-56
2022/04/01 00:19:41;;;;;;;24.27;13.73;;;;;;;-0.18;100.00;94868.78;10436796;22;20254;-56
2022/04/01 00:24:41;;;;;;;24.77;14.93;;;;;;;-0.23;100.00;94861.47;10369875;28;20194;-56
2022/04/01 00:29:42;;;;;;;23.93;14.60;;;;;;;-0.25;100.00;94865.09;10370122;28;20222;-56
2022/04/01 00:34:42;;;;;;;26.10;14.33;;;;;;;-0.20;100.00;94873.22;10369773;28;20223;-57
2022/04/01 00:39:43;;;;;;;20.73;15.03;;;;;;;-0.20;100.00;94876.63;10369666;28;20258;-57
2022/04/01 00:44:44;;;;;;;26.37;13.67;;;;;;;-0.17;100.00;94872.16;10369326;28;20228;-57
2022/04/01 00:49:46;;;;;;;22.90;14.00;;;;;;;-0.23;100.00;94879.47;10369733;28;20236;-56
2022/04/01 00:54:47;;;;;;;24.50;13.93;;;;;;;-0.08;100.00;94868.75;10377594;28;20303;-56
2022/04/01 00:59:51;;;;;;;22.43;15.03;;;;;;;-0.16;100.00;94864.28;10359272;28;20212;-56
2022/04/01 01:04:51;;;;;;;25.03;14.30;;;;;;;-0.12;100.00;94868.22;10376790;28;20182;-57
2022/04/01 01:09:52;;;;;;;23.23;14.87;;;;;;;-0.10;100.00;94874.03;10376609;28;20306;-60
2022/04/01 01:14:53;;;;;;;25.83;15.87;;;;;;;-0.07;100.00;94871.19;10376363;28;20217;-56
2022/04/01 01:19:53;;;;;;;22.30;14.10;;;;;;;-0.04;100.00;94867.53;10375357;28;20236;-56
2022/04/01 01:24:55;;;;;;;24.90;14.17;;;;;;;-0.25;100.00;94867.69;10375870;28;20628;-55
2022/04/01 01:29:56;;;;;;;25.50;14.60;;;;;;;-0.19;100.00;94862.00;10342099;28;20219;-56
2022/04/01 01:34:57;;;;;;;25.57;15.10;;;;;;;-0.18;100.00;94850.75;10375610;28;20283;-55
2022/04/01 01:39:58;;;;;;;27.20;14.03;;;;;;;-0.20;100.00;94855.22;10375632;28;20213;-54
2022/04/01 01:44:59;;;;;;;19.63;11.50;;;;;;;-0.10;100.00;94850.06;10357864;28;20240;-55
2022/04/01 01:55:18;;;;;;;20.93;12.33;;;;;;;-0.28;100.00;94849.94;10356622;28;20224;-56
2022/04/01 02:00:22;;;;;;;18.90;11.33;;;;;;;-0.18;100.00;94845.63;10374571;28;20214;-54
2022/04/01 02:05:22;;;;;;;18.83;10.77;;;;;;;-0.22;100.00;94844.25;10356925;28;20648;-58
2022/04/01 02:10:22;;;;;;;21.10;10.97;;;;;;;-0.19;100.00;94844.78;10374930;28;20268;-57
2022/04/01 02:15:23;;;;;;;16.27;10.37;;;;;;;-0.26;100.00;94848.03;10356223;28;20237;-54
2022/04/01 02:20:23;;;;;;;18.90;10.17;;;;;;;-0.41;100.00;94848.47;10356486;28;20233;-53
2022/04/01 02:25:24;;;;;;;14.70;8.60;;;;;;;-0.34;100.00;94846.13;10373986;28;20290;-54
2022/04/01 02:30:24;;;;;;;18.50;9.87;;;;;;;-0.28;100.00;94849.94;10374008;28;20210;-55
2022/04/01 02:35:44;;;;;;;15.87;8.70;;;;;;;-0.25;100.00;94834.22;10373617;28;20304;-54
2022/04/01 02:40:45;;;;;;;16.07;9.10;;;;;;;-0.34;100.00;94842.78;10356167;28;20205;-55
2022/04/01 02:45:48;;;;;;;17.00;8.30;;;;;;;-0.38;100.00;94839.66;10355458;28;20192;-54
2022/04/01 02:50:48;;;;;;;12.90;7.83;;;;;;;-0.40;100.00;94836.41;10355209;28;20210;-54
2022/04/01 02:55:49;;;;;;;18.63;9.37;;;;;;;-0.41;100.00;94840.75;10372726;28;20221;-56
2022/04/01 03:00:50;;;;;;;19.77;8.67;;;;;;;-0.49;100.00;94838.03;10354931;28;20213;-54
2022/04/01 03:05:50;;;;;;;15.87;8.00;;;;;;;-0.53;100.00;94841.03;10354732;28;20302;-54
2022/04/01 03:10:51;;;;;;;16.93;8.10;;;;;;;-0.40;100.00;94839.81;10354385;28;20238;-54
2022/04/01 03:15:51;;;;;;;14.53;7.70;;;;;;;-0.36;100.00;94845.47;10353978;28;20317;-55
2022/04/01 03:21:02;;;;;;;18.83;8.23;;;;;;;-0.41;100.00;94848.47;10354568;28;20321;-54
2022/04/01 03:26:03;;;;;;;12.27;7.50;;;;;;;-0.46;100.00;94853.19;10354743;28;20193;-54
2022/04/01 03:31:14;;;;;;;20.50;7.97;;;;;;;-0.55;100.00;94849.66;10371708;28;20213;-56
2022/04/01 03:36:14;;;;;;;13.80;8.13;;;;;;;-0.55;100.00;94849.66;10353986;28;20227;-58
2022/04/01 03:41:19;;;;;;;16.17;7.63;;;;;;;-0.53;100.00;94852.09;10353566;28;20217;-54
2022/04/01 03:46:24;;;;;;;15.30;8.00;;;;;;;-0.49;100.00;94853.47;10353019;28;20185;-54
2022/04/01 03:51:25;;;;;;;17.80;7.60;;;;;;;-0.48;100.00;94851.69;10337294;28;20308;-54
2022/04/01 03:56:34;;;;;;;13.43;7.60;;;;;;;-0.57;100.00;94851.56;10351844;28;20290;-54
2022/04/01 04:02:12;;;;;;;12.00;7.30;;;;;;;-0.54;100.00;94863.34;10343068;28;20212;-54
2022/04/01 04:07:12;;;;;;;14.17;7.00;;;;;;;-0.57;100.00;94848.16;10352983;28;20193;-55
2022/04/01 04:12:22;;;;;;;14.57;6.90;;;;;;;-0.57;100.00;94858.47;10352721;28;20202;-54
2022/04/01 04:17:37;;;;;;;13.70;5.80;;;;;;;-0.61;100.00;94857.91;10337835;28;20209;-57
2022/04/01 04:23:10;;;;;;;14.43;6.30;;;;;;;-0.73;100.00;94857.22;10352475;28;20652;-55
2022/04/01 04:28:12;;;;;;;17.67;5.57;;;;;;;-0.70;100.00;94865.59;10350847;28;20225;-55
2022/04/01 04:33:16;;;;;;;12.93;5.47;;;;;;;-0.68;100.00;94874.81;10352185;28;20181;-55
2022/04/01 04:38:20;;;;;;;11.77;5.90;;;;;;;-0.90;100.00;94876.69;10352549;28;20223;-55
2022/04/01 04:43:23;;;;;;;10.37;6.13;;;;;;;-0.99;100.00;94887.75;10351853;28;20204;-55
2022/04/01 04:48:26;;;;;;;10.20;6.30;;;;;;;-1.02;100.00;94900.84;10351545;28;20745;-56
2022/04/01 04:53:27;;;;;;;13.50;6.40;;;;;;;-1.03;100.00;94895.84;10352659;28;20201;-56
2022/04/01 04:58:31;;;;;;;13.10;6.23;;;;;;;-1.02;100.00;94892.34;10371837;28;20715;-61
2022/04/01 05:03:51;;;;;;;13.33;6.30;;;;;;;-1.23;100.00;94893.19;10352366;28;20195;-62
2022/04/01 05:09:04;;;;;;;13.20;6.00;;;;;;;-1.33;100.00;94900.88;10352024;28;20225;-59
2022/04/01 05:15:10;;;;;;;10.47;6.10;;;;;;;-1.35;100.00;94905.31;10368450;28;20300;-56
2022/04/01 05:20:17;;;;;;;18.23;6.40;;;;;;;-1.27;100.00;94910.63;10326904;28;20611;-55
2022/04/01 05:25:25;;;;;;;12.40;6.43;;;;;;;-1.27;100.00;94908.06;10351622;28;20668;-56
2022/04/01 05:30:30;;;;;;;11.37;6.70;;;;;;;-1.39;100.00;94927.06;10351439;28;20289;-56
2022/04/01 05:35:37;;;;;;;10.33;6.50;;;;;;;-1.58;100.00;94922.63;10351404;28;20265;-57
2022/04/01 05:40:38;;;;;;;9.67;6.07;;;;;;;-1.58;100.00;94932.09;10358727;28;20228;-55
2022/04/01 05:45:45;;;;;;;11.43;6.20;;;;;;;-1.42;100.00;94936.75;10358101;28;20236;-56
2022/04/01 05:50:49;;;;;;;13.90;6.97;;;;;;;-1.62;100.00;94934.09;10358459;28;20236;-60
2022/04/01 05:55:51;;;;;;;11.03;5.87;;;;;;;-1.54;100.00;94930.91;10358072;28;20308;-60
2022/04/01 06:01:19;;;;;;;15.83;6.37;;;;;;;-1.63;100.00;94935.03;10357784;28;20358;-60
2022/04/01 06:06:25;;;;;;;15.63;6.60;;;;;;;-1.60;100.00;94939.91;10357587;28;20231;-61
2022/04/01 06:11:45;;;;;;;17.67;7.17;;;;;;;-1.51;100.00;94952.00;10341534;28;20213;-56
2022/04/01 06:17:16;;;;;;;9.47;5.80;;;;;;;-1.60;100.00;94947.63;10371200;28;20707;-55
2022/04/01 06:22:18;;;;;;;9.93;6.20;;;;;;;-1.74;100.00;94963.34;10475365;23;20737;-59
2022/04/01 06:27:38;;;;;;;15.10;7.23;;;;;;;-1.71;100.00;94960.53;10434386;28;20196;-54
2022/04/01 06:32:56;;;;;;;13.53;7.80;;;;;;;-1.72;100.00;94964.03;10415925;28;20212;-56
2022/04/01 06:38:29;;;;;;;13.90;7.83;;;;;;;-1.70;100.00;94967.28;10397124;28;20228;-56
2022/04/01 06:43:29;;;;;;;13.13;8.43;;;;;;;-1.67;100.00;94967.84;10396968;28;20245;-58
2022/04/01 06:48:48;;;;;;;18.03;9.00;;;;;;;-1.66;100.00;94974.59;10414671;28;20209;-60
2022/04/01 06:54:07;;;;;;;14.07;9.80;;;;;;;-1.72;100.00;94979.44;10403809;28;20196;-58
2022/04/01 06:59:36;;;;;;;15.77;9.93;;;;;;;-1.68;100.00;94988.53;10388522;28;20256;-55
2022/04/01 07:04:36;;;;;;;13.23;9.40;;;;;;;-1.69;100.00;94987.69;10397745;28;20715;-52
2022/04/01 07:09:37;;;;;;;18.87;10.47;;;;;;;-1.52;100.00;94983.75;10407063;28;20262;-56
2022/04/01 07:14:37;;;;;;;18.43;9.97;;;;;;;-1.74;100.00;94989.03;10411148;28;20287;-55
2022/04/01 07:19:37;;;;;;;23.63;10.90;;;;;;;-1.90;100.00;94997.13;10411970;28;20244;-56
2022/04/01 07:24:38;;;;;;;17.10;10.13;;;;;;;-1.81;100.00;94996.38;10410930;28;20188;-54
2022/04/01 07:29:38;;;;;;;15.63;10.63;;;;;;;-1.97;100.00;95007.06;10409057;28;20212;-54
2022/04/01 07:34:41;;;;;;;18.10;10.87;;;;;;;-1.86;100.00;95009.56;10408853;28;20231;-52
2022/04/01 07:39:41;;;;;;;16.93;11.40;;;;;;;-1.91;100.00;95010.91;10410381;28;20205;-58
2022/04/01 07:44:41;;;;;;;16.77;11.43;;;;;;;-1.96;100.00;95008.69;10410453;28;20189;-56
2022/04/01 07:49:42;;;;;;;15.00;10.73;;;;;;;-1.91;100.00;95014.28;10409948;28;20744;-52
2022/04/01 07:54:43;;;;;;;18.60;11.47;;;;;;;-1.82;100.00;95017.88;10402389;28;20641;-56
2022/04/01 07:59:43;;;;;;;15.83;10.87;;;;;;;-1.85;100.00;95024.06;10401227;28;20722;-55
2022/04/01 08:04:44;;;;;;;14.63;10.17;;;;;;;-1.99;100.00;95026.88;10405509;28;20203;-55
2022/04/01 08:09:44;;;;;;;15.23;10.43;;;;;;;-2.01;100.00;95031.31;10407759;28;20291;-53
2022/04/01 08:14:45;;;;;;;18.07;10.87;;;;;;;-1.84;100.00;95038.53;10409053;28;20223;-58
2022/04/01 08:19:45;;;;;;;17.47;11.90;;;;;;;-1.94;100.00;95035.03;10406559;28;20290;-58
2022/04/01 08:24:45;;;;;;;17.23;10.47;;;;;;;-1.88;100.00;95049.97;10404543;28;20196;-55
2022/04/01 08:29:46;;;;;;;18.40;12.47;;;;;;;-1.85;100.00;95054.84;10408830;28;20239;-57
2022/04/01 08:34:46;;;;;;;21.23;12.73;;;;;;;-1.94;100.00;95059.91;10390561;28;20315;-56
2022/04/01 08:39:47;;;;;;;19.27;12.07;;;;;;;-1.99;100.00;95068.75;10408048;28;20227;-53
2022/04/01 08:44:47;;;;;;;18.63;13.33;;;;;;;-1.78;100.00;95067.19;10408152;28;20189;-54
2022/04/01 08:49:48;;;;;;;23.57;12.83;;;;;;;-1.89;100.00;95075.75;10408722;28;20208;-53
2022/04/01 08:54:49;;;;;;;17.20;11.93;;;;;;;-2.01;100.00;95085.22;10407737;28;20695;-51
2022/04/01 08:59:49;;;;;;;20.47;13.27;;;;;;;-1.95;100.00;95077.03;10406276;28;20220;-58
2022/04/01 09:05:03;;;;;;;17.03;11.83;;;;;;;-2.00;100.00;95092.78;10408365;28;20220;-56
2022/04/01 09:10:05;;;;;;;22.30;12.90;;;;;;;-2.07;100.00;95099.31;10408418;28;20278;-55
2022/04/01 09:15:08;;;;;;;19.00;11.33;;;;;;;-1.99;100.00;95102.13;10414633;28;20725;-52
2022/04/01 09:20:09;;;;;;;18.20;12.17;;;;;;;-2.07;100.00;95101.88;10416539;28;20248;-56
2022/04/01 09:25:15;;;;;;;15.53;9.97;;;;;;;-2.05;100.00;95109.47;10415056;28;20655;-52
2022/04/01 09:30:18;;;;;;;16.20;11.33;;;;;;;-1.81;100.00;95099.03;10413812;28;20209;-60
2022/04/01 09:35:22;;;;;;;17.90;9.40;;;;;;;-1.83;100.00;95101.72;10401520;28;20209;-56
2022/04/01 09:40:23;;;;;;;17.47;10.20;;;;;;;-2.02;100.00;95109.22;10368001;28;20231;-53
2022/04/01 09:45:32;;;;;;;19.27;9.40;;;;;;;-1.89;100.00;95111.66;10400605;28;20196;-55
2022/04/01 09:50:35;;;;;;;9.90;7.47;;;;;;;-1.82;100.00;95115.41;10404802;28;20217;-55
2022/04/01 09:55:37;;;;;;;10.87;7.20;;;;;;;-1.77;100.00;95118.41;10410830;28;20354;-59
2022/04/01 10:00:38;;;;;;;10.57;6.77;;;;;;;-1.33;100.00;95121.78;10409360;28;20768;-55
2022/04/01 10:05:39;;;;;;;14.00;6.73;;;;;;;-1.29;100.00;95118.03;10409611;28;20663;-53
2022/04/01 10:10:41;;;;;;;8.27;6.17;;;;;;;-1.26;100.00;95120.34;10409866;28;20217;-58
2022/04/01 10:15:42;;;;;;;10.73;6.20;;;;;;;-1.44;100.00;95116.66;10409257;28;20231;-52
2022/04/01 10:20:43;;;;;;;11.87;5.97;;;;;;;-1.26;100.00;95110.06;10410519;28;20584;-55
2022/04/01 10:25:46;;;;;;;10.20;6.10;;;;;;;-1.34;100.00;95114.19;10410491;28;20184;-53
2022/04/01 10:30:54;;;;;;;15.23;7.10;;;;;;;-1.02;100.00;95119.28;10408798;28;20253;-52
2022/04/01 10:35:55;;;;;;;9.00;6.60;;;;;;;-1.24;100.00;95117.66;10410351;28;20228;-53
2022/04/01 10:41:12;;;;;;;11.47;7.10;;;;;;;-1.17;100.00;95125.69;10409438;28;20227;-52
2022/04/01 10:46:15;;;;;;;17.50;7.60;;;;;;;-1.10;100.00;95131.97;10406535;28;20683;-54
2022/04/01 10:51:38;;;;;;;10.80;7.53;;;;;;;-1.21;100.00;95119.16;10407418;28;20228;-57
2022/04/01 10:56:40;;;;;;;11.83;8.33;;;;;;;-0.86;100.00;95130.91;10404417;28;20609;-61
2022/04/01 11:01:56;;;;;;;20.80;10.33;;;;;;;-0.96;100.00;95141.13;10397888;28;20346;-59
2022/04/01 11:07:14;;;;;;;19.00;11.80;;;;;;;-0.80;100.00;95149.19;10397466;28;20563;-61
2022/04/01 11:12:14;;;;;;;14.70;9.63;;;;;;;-0.80;100.00;95146.63;10404142;28;20224;-57
2022/04/01 11:17:15;;;;;;;15.87;8.33;;;;;;;-0.97;100.00;95160.84;10406000;28;20587;-59
2022/04/01 11:22:36;;;;;;;16.60;9.60;;;;;;;-0.58;100.00;95165.47;10407008;28;20240;-57
2022/04/01 11:27:51;;;;;;;14.30;8.03;;;;;;;-0.57;100.00;95161.94;10407226;28;20200;-58
2022/04/01 11:32:53;;;;;;;11.73;7.53;;;;;;;-0.26;100.00;95165.34;10404762;28;20197;-57
2022/04/01 11:37:53;;;;;;;14.60;8.00;;;;;;;-0.69;100.00;95171.44;10405828;28;20208;-58
2022/04/01 11:43:09;;;;;;;12.10;7.80;;;;;;;-0.65;100.00;95179.75;10407350;28;20203;-60
2022/04/01 11:48:15;;;;;;;14.10;8.90;;;;;;;-0.86;100.00;95185.69;10407108;28;20223;-59
2022/04/01 11:53:24;;;;;;;21.93;9.43;;;;;;;-1.05;100.00;95190.69;10405679;28;20193;-56
2022/04/01 11:58:25;;;;;;;17.13;9.50;;;;;;;-0.80;100.00;95187.75;10403847;28;20228;-60
2022/04/01 12:03:26;;;;;;;14.17;9.63;;;;;;;-1.02;100.00;95204.09;10406548;28;20276;-58
2022/04/01 12:08:41;;;;;;;14.33;8.97;;;;;;;-0.59;100.00;95198.06;10406111;28;20630;-59
2022/04/01 12:13:49;;;;;;;16.07;8.90;;;;;;;-0.16;100.00;95204.00;10406473;28;20192;-59
2022/04/01 12:18:50;;;;;;;19.17;11.03;;;;;;;-0.57;100.00;95203.91;10404598;28;20260;-60
2022/04/01 12:23:51;;;;;;;16.70;9.63;;;;;;;-0.31;100.00;95211.22;10443965;22;20681;-59
2022/04/01 12:28:52;;;;;;;16.63;9.67;;;;;;;-0.38;100.00;95205.78;10447538;28;20189;-62
2022/04/01 12:33:54;;;;;;;20.73;9.70;;;;;;;-0.28;100.00;95202.44;10416164;28;20204;-60
2022/04/01 12:39:04;;;;;;;31.63;20.93;;;;;;;-0.11;100.00;95207.00;10405721;28;20306;-63
2022/04/01 12:44:12;;;;;;;15.77;9.30;;;;;;;-0.14;100.00;95206.44;10406083;28;20746;-62
2022/04/01 12:49:14;;;;;;;14.03;9.17;;;;;;;-0.27;100.00;95212.59;10412762;28;20188;-63
2022/04/01 12:54:39;;;;;;;14.13;9.23;;;;;;;-0.38;100.00;95203.19;10411317;28;20222;-64
2022/04/01 12:59:41;;;;;;;13.97;8.73;;;;;;;-0.39;100.00;95206.72;10410302;28;20245;-61
2022/04/01 13:04:47;;;;;;;17.50;10.00;;;;;;;-0.15;100.00;95199.66;10411215;28;20212;-64
2022/04/01 13:09:56;;;;;;;14.67;8.70;;;;;;;-0.09;100.00;95187.09;10411828;28;20656;-63
2022/04/01 13:15:11;;;;;;;12.80;8.40;;;;;;;0.01;100.00;95194.06;10411983;28;20296;-63
2022/04/01 13:20:13;;;;;;;15.43;7.83;;;;;;;0.23;100.00;95201.59;10413401;28;20689;-62
2022/04/01 13:25:14;;;;;;;13.93;8.10;;;;;;;0.24;100.00;95197.25;10411457;28;20315;-61
2022/04/01 13:30:15;;;;;;;16.10;8.73;;;;;;;0.49;100.00;95203.69;10412953;28;20193;-62
2022/04/01 13:35:16;;;;;;;13.90;8.03;;;;;;;0.59;100.00;95204.53;10412221;28;20302;-59
2022/04/01 13:40:17;;;;;;;13.13;7.27;;;;;;;0.99;100.00;95198.47;10412133;28;20241;-62
2022/04/01 13:45:17;;;;;;;13.83;7.30;;;;;;;0.83;100.00;95200.78;10412340;28;20191;-62
2022/04/01 13:50:18;;;;;;;12.67;7.30;;;;;;;1.31;100.00;95194.81;10411550;28;20242;-59
2022/04/01 13:55:18;;;;;;;11.67;6.93;;;;;;;1.68;100.00;95190.69;10410856;28;20219;-60
2022/04/01 14:00:21;;;;;;;10.57;6.63;;;;;;;1.89;100.00;95187.94;10408880;28;20377;-60
2022/04/01 14:05:21;;;;;;;11.67;7.07;;;;;;;2.03;100.00;95187.47;10409806;28;20196;-62
2022/04/01 14:10:22;;;;;;;11.70;7.17;;;;;;;2.28;100.00;95186.00;10410499;28;20210;-60
2022/04/01 14:15:23;;;;;;;13.30;7.30;;;;;;;2.46;100.00;95193.00;10411262;28;20580;-61
2022/04/01 14:20:23;;;;;;;10.97;6.93;;;;;;;2.41;100.00;95188.25;10410678;28;20905;-61
2022/04/01 14:25:25;;;;;;;12.63;7.00;;;;;;;2.36;100.00;95185.28;10410235;28;20737;-61
2022/04/01 14:30:25;;;;;;;26.87;19.93;;;;;;;1.99;100.00;95199.06;10411042;28;20207;-60
2022/04/01 14:35:27;;;;;;;18.33;7.17;;;;;;;2.17;100.00;95195.72;10413430;28;20225;-60
2022/04/01 14:40:27;;;;;;;19.23;11.17;;;;;;;1.80;100.00;95186.19;10413320;28;20193;-61
2022/04/01 14:45:29;;;;;;;12.70;5.63;;;;;;;1.24;100.00;95193.72;10413450;28;20195;-59
2022/04/01 14:50:29;;;;;;;13.93;5.87;;;;;;;1.12;100.00;95197.41;10412722;28;20197;-63
2022/04/01 14:55:30;;;;;;;12.17;5.83;;;;;;;1.24;100.00;95198.88;10412730;28;20312;-60
2022/04/01 15:00:32;;;;;;;17.63;6.23;;;;;;;1.32;100.00;95200.81;10411657;28;20552;-59
2022/04/01 15:05:33;;;;;;;14.57;6.30;;;;;;;1.40;100.00;95193.19;10410636;28;20222;-59
2022/04/01 15:10:34;;;;;;;13.50;5.63;;;;;;;1.41;100.00;95197.41;10409246;28;20203;-56
2022/04/01 15:15:34;;;;;;;10.70;5.50;;;;;;;1.42;100.00;95202.44;10412160;28;20212;-59
2022/04/01 15:20:34;;;;;;;20.90;6.67;;;;;;;1.35;100.00;95203.91;10411815;28;20204;-56
2022/04/01 15:25:35;;;;;;;11.33;5.43;;;;;;;1.38;100.00;95190.75;10411721;28;20199;-59
2022/04/01 15:30:35;;;;;;;12.23;5.97;;;;;;;1.13;100.00;95204.19;10411711;28;20219;-57
2022/04/01 15:35:36;;;;;;;7.33;4.97;;;;;;;1.10;100.00;95220.75;10410243;28;20656;-61
2022/04/01 15:40:38;;;;;;;10.03;5.07;;;;;;;1.13;100.00;95214.50;10410974;28;20571;-61
2022/04/01 15:45:40;;;;;;;12.43;5.83;;;;;;;1.18;100.00;95218.31;10409974;28;20279;-60
2022/04/01 15:50:40;;;;;;;7.43;5.30;;;;;;;0.99;100.00;95213.94;10410393;28;20255;-60
2022/04/01 15:55:41;;;;;;;9.93;5.07;;;;;;;1.14;100.00;95226.47;10410274;28;20282;-61
2022/04/01 16:00:46;;;;;;;18.40;5.20;;;;;;;1.20;100.00;95236.22;10410092;28;20213;-59
2022/04/01 16:05:48;;;;;;;11.57;4.57;;;;;;;1.02;99.21;95230.91;10409626;28;20230;-60
2022/04/01 16:10:49;;;;;;;10.73;4.50;;;;;;;1.01;100.00;95244.75;10391962;28;20223;-60
2022/04/01 16:15:49;;;;;;;11.97;4.60;;;;;;;0.95;100.00;95245.28;10409459;28;20223;-58
2022/04/01 16:20:54;;;;;;;8.50;3.83;;;;;;;0.89;99.01;95236.34;10409458;28;20257;-59
2022/04/01 16:25:56;;;;;;;12.97;4.60;;;;;;;0.93;97.62;95239.47;10409154;28;20576;-59
2022/04/01 16:30:56;;;;;;;7.80;3.90;;;;;;;0.91;97.01;95244.75;10409346;28;20216;-59
2022/04/01 16:35:57;;;;;;;14.43;4.10;;;;;;;0.83;93.58;95236.88;10408554;28;20591;-56
2022/04/01 16:40:57;;;;;;;13.97;5.10;;;;;;;0.86;91.74;95223.72;10404179;28;20569;-57
2022/04/01 16:45:58;;;;;;;11.53;4.93;;;;;;;0.90;89.63;95207.03;10408488;28;20665;-56
2022/04/01 16:50:58;;;;;;;10.53;4.40;;;;;;;0.81;90.12;95236.19;10408202;28;20207;-56
2022/04/01 16:55:59;;;;;;;14.67;4.73;;;;;;;0.82;91.10;95246.34;10408853;28;20227;-55
2022/04/01 17:00:59;;;;;;;17.27;6.60;;;;;;;0.83;92.17;95272.97;10408598;28;20651;-55
2022/04/01 17:16:38;;;;;;;12.23;3.90;;;;;;;0.59;85.71;95229.50;10406740;28;20208;-57
2022/04/01 17:21:39;;;;;;;10.83;4.27;;;;;;;0.66;84.48;95220.31;10407675;28;20717;-54
2022/04/01 17:26:39;;;;;;;33.87;10.17;;;;;;;0.73;84.31;95215.41;10404088;28;20560;-54
2022/04/01 17:31:40;;;;;;;12.93;4.20;;;;;;;0.64;86.08;95253.91;10405987;28;20217;-57
2022/04/01 17:36:41;;;;;;;11.50;4.23;;;;;;;0.53;89.21;95298.63;10413528;28;20297;-56
2022/04/01 17:41:43;;;;;;;15.70;5.13;;;;;;;0.40;86.11;95246.53;10414026;28;20633;-55
2022/04/01 17:46:45;;;;;;;9.33;3.90;;;;;;;0.64;81.05;95175.78;10414462;28;20672;-54
2022/04/01 17:51:45;;;;;;;24.50;5.60;;;;;;;0.74;79.69;95170.66;10413743;28;20292;-58
2022/04/01 17:56:52;;;;;;;22.73;6.03;;;;;;;0.68;79.06;95162.50;10413434;28;20233;-56
2022/04/01 18:01:56;;;;;;;33.50;12.20;;;;;;;0.59;82.46;95237.22;10413357;28;20207;-54
2022/04/01 18:07:01;;;;;;;16.23;4.67;;;;;;;0.55;83.52;95251.31;10410839;28;20195;-58
2022/04/01 18:12:07;;;;;;;12.10;4.40;;;;;;;0.50;91.38;95352.19;10414363;28;20706;-57
2022/04/01 18:17:08;;;;;;;12.53;6.70;;;;;;;0.05;97.78;95384.19;10411308;28;20700;-55
2022/04/01 18:22:09;;;;;;;11.53;4.23;;;;;;;-0.22;100.00;95380.31;10412792;28;20232;-57
2022/04/01 18:27:36;;;;;;;12.03;3.80;;;;;;;-0.23;100.00;95383.00;10412808;28;20188;-57
2022/04/01 18:33:12;;;;;;;13.93;3.90;;;;;;;0.02;93.90;95319.25;10410401;28;20706;-60
2022/04/01 18:38:15;;;;;;;17.73;3.90;;;;;;;0.09;91.38;95310.91;10413626;28;20216;-60
2022/04/01 18:43:17;;;;;;;16.93;4.80;;;;;;;0.34;88.74;95285.69;10413552;28;20246;-60
2022/04/01 18:48:18;;;;;;;8.20;4.90;;;;;;;0.17;94.87;95367.72;10413990;28;20665;-56
2022/04/01 18:53:18;;;;;;;12.53;4.80;;;;;;;0.14;100.00;95388.59;10413639;28;20219;-58
2022/04/01 18:58:19;;;;;;;9.47;5.60;;;;;;;-0.32;100.00;95394.03;10413505;28;20256;-57
2022/04/01 19:03:32;;;;;;;16.00;5.03;;;;;;;-0.39;100.00;95401.44;10413425;28;20227;-56
2022/04/01 19:08:47;;;;;;;10.70;4.50;;;;;;;-0.43;100.00;95405.19;10413279;28;20212;-56
2022/04/01 19:13:47;;;;;;;9.63;4.43;;;;;;;-0.72;100.00;95403.97;10411258;28;20217;-56
2022/04/01 19:18:48;;;;;;;18.53;5.17;;;;;;;-0.78;100.00;95409.59;10412200;28;20252;-56
2022/04/01 19:23:50;;;;;;;21.00;5.07;;;;;;;-0.64;100.00;95399.97;10412576;28;20331;-58
2022/04/01 19:28:50;;;;;;;19.43;4.80;;;;;;;-0.75;100.00;95413.66;10411518;28;20721;-55
2022/04/01 19:33:51;;;;;;;14.83;4.60;;;;;;;-0.85;100.00;95415.31;10464589;23;20305;-59
2022/04/01 19:38:51;;;;;;;15.00;4.30;;;;;;;-0.82;100.00;95408.19;10494234;28;20215;-57
2022/04/01 19:43:51;;;;;;;12.83;5.03;;;;;;;-0.75;100.00;95408.50;10475934;28;20215;-58
2022/04/01 19:48:52;;;;;;;10.00;4.17;;;;;;;-0.61;100.00;95418.56;10453079;28;20179;-57
2022/04/01 19:53:53;;;;;;;15.77;4.33;;;;;;;-0.74;100.00;95410.97;10452737;28;20694;-57
2022/04/01 19:58:54;;;;;;;14.17;4.10;;;;;;;-0.58;100.00;95420.09;10452325;28;20246;-51
2022/04/01 20:03:55;;;;;;;19.70;4.70;;;;;;;-0.73;100.00;95419.50;10452278;28;20291;-57
2022/04/01 20:08:55;;;;;;;13.93;4.10;;;;;;;-0.85;100.00;95428.97;10452981;28;20675;-59
2022/04/01 20:13:56;;;;;;;12.60;3.77;;;;;;;-0.80;100.00;95416.56;10452241;28;20246;-58
2022/04/01 20:18:56;;;;;;;18.40;4.20;;;;;;;-0.79;100.00;95427.69;10452149;28;20215;-58
2022/04/01 20:23:57;;;;;;;15.37;4.47;;;;;;;-0.88;100.00;95418.13;10452273;28;20214;-59
2022/04/01 20:28:58;;;;;;;16.27;4.00;;;;;;;-0.81;100.00;95440.69;10451404;28;20722;-55
2022/04/01 20:33:59;;;;;;;14.03;3.97;;;;;;;-1.03;100.00;95432.97;10450863;28;20612;-56
2022/04/01 20:38:59;;;;;;;17.47;4.27;;;;;;;-1.17;100.00;95452.81;10448766;28;20216;-56
2022/04/01 20:44:00;;;;;;;15.97;4.00;;;;;;;-1.19;100.00;95469.28;10450006;28;20212;-58
2022/04/01 20:49:00;;;;;;;9.33;3.50;;;;;;;-1.28;100.00;95463.09;10450424;28;20188;-58
2022/04/01 20:54:02;;;;;;;19.63;4.10;;;;;;;-1.26;100.00;95484.31;10451496;28;20212;-55
2022/04/01 20:59:02;;;;;;;8.87;4.30;;;;;;;-1.31;100.00;95481.28;10451542;28;20211;-54
2022/04/01 21:04:03;;;;;;;16.20;4.30;;;;;;;-1.35;100.00;95470.41;10451131;28;20212;-55
2022/04/01 21:09:07;;;;;;;21.27;4.73;;;;;;;-1.51;100.00;95480.19;10456742;28;20196;-54
2022/04/01 21:14:09;;;;;;;14.40;4.67;;;;;;;-1.41;100.00;95480.34;10459556;28;20212;-54
2022/04/01 21:19:09;;;;;;;14.90;3.80;;;;;;;-1.33;100.00;95478.00;10458565;28;20232;-55
2022/04/01 21:24:09;;;;;;;22.33;5.30;;;;;;;-1.42;100.00;95481.25;10459541;28;20298;-55
2022/04/01 21:29:10;;;;;;;12.17;4.07;;;;;;;-1.27;100.00;95485.28;10458633;28;20195;-53
2022/04/01 21:34:11;;;;;;;27.83;4.33;;;;;;;-1.41;100.00;95482.91;10459004;28;20256;-54
2022/04/01 21:39:11;;;;;;;12.80;3.97;;;;;;;-1.50;100.00;95484.38;10458879;28;20215;-53
2022/04/01 21:44:12;;;;;;;18.07;3.40;;;;;;;-0.76;93.94;95391.47;10458654;28;20217;-54
2022/04/01 21:49:13;;;;;;;7.30;3.10;;;;;;;-0.40;81.27;95287.44;10458510;28;20542;-54
2022/04/01 21:54:13;;;;;;;7.50;3.57;;;;;;;-0.18;76.12;95241.91;10457457;28;20298;-54
2022/04/01 21:59:15;;;;;;;10.07;3.50;;;;;;;-0.18;76.93;95288.25;10457996;28;20274;-56
2022/04/01 22:04:16;;;;;;;15.77;2.73;;;;;;;-0.01;73.66;95237.94;10457150;28;20208;-55
2022/04/01 22:09:17;;;;;;;13.27;3.33;;;;;;;-0.08;75.05;95281.38;10457327;28;20261;-52
2022/04/01 22:14:18;;;;;;;10.73;3.53;;;;;;;-0.09;73.21;95266.91;10456862;28;20208;-52
2022/04/01 22:19:20;;;;;;;12.13;3.27;;;;;;;-0.06;74.21;95287.22;10455636;28;20230;-55
2022/04/01 22:24:20;;;;;;;13.47;4.00;;;;;;;-0.11;73.97;95296.25;10456573;28;20724;-53
2022/04/01 22:29:21;;;;;;;18.13;3.40;;;;;;;-0.12;73.82;95290.31;10455458;28;20191;-54
2022/04/01 22:34:21;;;;;;;13.03;3.37;;;;;;;-0.10;72.27;95277.31;10455933;28;20235;-52
2022/04/01 22:39:21;;;;;;;7.73;3.13;;;;;;;-0.16;71.76;95276.06;10455911;28;20757;-52
2022/04/01 22:44:22;;;;;;;14.70;3.37;;;;;;;-0.23;73.95;95336.69;10455721;28;20211;-57
2022/04/01 22:49:22;;;;;;;13.07;3.60;;;;;;;-0.24;73.46;95323.00;10455529;28;20243;-52
2022/04/01 22:54:23;;;;;;;9.47;3.80;;;;;;;-0.41;74.81;95354.44;10455296;28;20235;-57
2022/04/01 22:59:23;;;;;;;9.53;3.43;;;;;;;-0.37;72.43;95324.94;10455012;28;20223;-55
2022/04/01 23:04:23;;;;;;;14.77;3.47;;;;;;;-0.46;74.54;95367.66;10454833;28;20273;-52
2022/04/01 23:09:23;;;;;;;7.00;3.17;;;;;;;-0.45;74.62;95371.84;10454751;28;20192;-55
2022/04/01 23:14:24;;;;;;;16.23;3.97;;;;;;;-0.49;74.69;95367.06;10454367;28;20292;-56
2022/04/01 23:19:25;;;;;;;14.83;3.70;;;;;;;-0.48;74.96;95376.44;10454108;28;20220;-53
2022/04/01 23:24:27;;;;;;;10.87;3.57;;;;;;;-0.50;74.82;95386.03;10453861;28;20299;-55